sensor_id;sensor_type;location;lat;lon;timestamp;temperature;humidity
47921;DHT22;33686;48.770;9.186;2023-09-12T05:16:47;18.80;99.90
47921;DHT22;33686;48.770;9.186;2023-09-12T05:19:12;18.90;99.90
47921;DHT22;33686;48.770;9.186;2023-09-12T05:21:38;19.00;99.90
47921;DHT22;33686;48.770;9.186;2023-09-12T05:24:05;19.00;99.90
47921;DHT22;33686;48.770;9.186;2023-09-12T05:26:30;19.00;99.90
47921;DHT22;33686;48.770;9.186;2023-09-12T05:29:00;19.00;99.90
47921;DHT22;33686;48.770;9.186;2023-09-12T05:31:26;18.90;99.90
47921;DHT22;33686;48.770;9.186;2023-09-12T05:33:52;18.80;99.90
47921;DHT22;33686;48.770;9.186;2023-09-12T05:36:17;18.70;99.90
47921;DHT22;33686;48.770;9.186;2023-09-12T05:38:43;18.90;99.90
47921;DHT22;33686;48.770;9.186;2023-09-12T05:41:09;19.20;99.90
47921;DHT22;33686;48.770;9.186;2023-09-12T05:43:35;19.40;99.90
47921;DHT22;33686;48.770;9.186;2023-09-12T05:46:00;19.60;99.90
47921;DHT22;33686;48.770;9.186;2023-09-12T05:48:27;19.80;99.90
47921;DHT22;33686;48.770;9.186;2023-09-12T05:50:53;20.00;99.90
47921;DHT22;33686;48.770;9.186;2023-09-12T05:53:18;20.10;99.90
47921;DHT22;33686;48.770;9.186;2023-09-12T05:55:44;19.70;99.90
47921;DHT22;33686;48.770;9.186;2023-09-12T05:58:10;19.70;99.90
47921;DHT22;33686;48.770;9.186;2023-09-12T06:00:36;20.00;99.90
47921;DHT22;33686;48.770;9.186;2023-09-12T06:03:01;20.20;99.90
47921;DHT22;33686;48.770;9.186;2023-09-12T06:05:27;20.40;99.90
47921;DHT22;33686;48.770;9.186;2023-09-12T06:07:52;20.80;99.90
47921;DHT22;33686;48.770;9.186;2023-09-12T06:10:18;21.10;99.90
47921;DHT22;33686;48.770;9.186;2023-09-12T06:12:44;21.30;99.90
47921;DHT22;33686;48.770;9.186;2023-09-12T06:15:09;21.50;99.90
47921;DHT22;33686;48.770;9.186;2023-09-12T06:17:35;21.60;99.90
47921;DHT22;33686;48.770;9.186;2023-09-12T06:20:00;21.50;99.90
47921;DHT22;33686;48.770;9.186;2023-09-12T06:22:26;21.70;99.90
47921;DHT22;33686;48.770;9.186;2023-09-12T06:24:51;21.90;99.90
47921;DHT22;33686;48.770;9.186;2023-09-12T06:27:17;21.70;99.90
47921;DHT22;33686;48.770;9.186;2023-09-12T06:29:44;21.60;99.90
47921;DHT22;33686;48.770;9.186;2023-09-12T06:32:10;22.80;99.90
47921;DHT22;33686;48.770;9.186;2023-09-12T06:34:36;22.80;99.90
47921;DHT22;33686;48.770;9.186;2023-09-12T06:37:01;22.80;99.90
47921;DHT22;33686;48.770;9.186;2023-09-12T06:39:27;22.80;99.90
47921;DHT22;33686;48.770;9.186;2023-09-12T06:41:52;23.20;99.90
47921;DHT22;33686;48.770;9.186;2023-09-12T06:44:18;22.80;99.90
47921;DHT22;33686;48.770;9.186;2023-09-12T06:46:43;22.40;99.90
47921;DHT22;33686;48.770;9.186;2023-09-12T06:49:09;21.90;99.90
47921;DHT22;33686;48.770;9.186;2023-09-12T06:51:34;22.00;99.90
47921;DHT22;33686;48.770;9.186;2023-09-12T06:54:00;21.90;99.90
47921;DHT22;33686;48.770;9.186;2023-09-12T06:56:26;22.00;99.90
47921;DHT22;33686;48.770;9.186;2023-09-12T06:58:52;22.10;99.90
47921;DHT22;33686;48.770;9.186;2023-09-12T07:01:20;22.30;99.90
47921;DHT22;33686;48.770;9.186;2023-09-12T07:03:46;22.30;99.90
47921;DHT22;33686;48.770;9.186;2023-09-12T07:06:12;22.70;99.90
47921;DHT22;33686;48.770;9.186;2023-09-12T07:08:37;23.00;99.90
47921;DHT22;33686;48.770;9.186;2023-09-12T07:11:04;22.70;99.90
47921;DHT22;33686;48.770;9.186;2023-09-12T07:13:31;23.10;99.90
47921;DHT22;33686;48.770;9.186;2023-09-12T07:15:57;23.90;99.90
47921;DHT22;33686;48.770;9.186;2023-09-12T07:18:23;24.60;99.90
47921;DHT22;33686;48.770;9.186;2023-09-12T07:21:01;24.60;99.90
47921;DHT22;33686;48.770;9.186;2023-09-12T07:23:27;24.80;99.90
47921;DHT22;33686;48.770;9.186;2023-09-12T07:25:53;25.30;99.90
47921;DHT22;33686;48.770;9.186;2023-09-12T07:28:20;25.30;99.90
47921;DHT22;33686;48.770;9.186;2023-09-12T07:30:46;24.90;99.90
47921;DHT22;33686;48.770;9.186;2023-09-12T07:33:12;25.20;99.90
47921;DHT22;33686;48.770;9.186;2023-09-12T07:35:37;25.70;99.90
47921;DHT22;33686;48.770;9.186;2023-09-12T07:38:03;25.80;99.90
47921;DHT22;33686;48.770;9.186;2023-09-12T07:40:28;25.30;99.90
47921;DHT22;33686;48.770;9.186;2023-09-12T07:42:54;24.80;99.90
47921;DHT22;33686;48.770;9.186;2023-09-12T07:45:20;24.90;99.90
47921;DHT22;33686;48.770;9.186;2023-09-12T07:47:46;25.60;99.90
47921;DHT22;33686;48.770;9.186;2023-09-12T07:50:11;27.00;99.90
47921;DHT22;33686;48.770;9.186;2023-09-12T07:52:37;27.60;99.90
47921;DHT22;33686;48.770;9.186;2023-09-12T07:55:02;28.20;99.90
47921;DHT22;33686;48.770;9.186;2023-09-12T07:57:28;27.70;99.90
47921;DHT22;33686;48.770;9.186;2023-09-12T07:59:55;27.20;99.90
47921;DHT22;33686;48.770;9.186;2023-09-12T08:02:20;26.90;99.90
47921;DHT22;33686;48.770;9.186;2023-09-12T08:04:46;26.40;99.90
47921;DHT22;33686;48.770;9.186;2023-09-12T08:07:12;26.20;99.90
47921;DHT22;33686;48.770;9.186;2023-09-12T08:09:51;26.90;99.90
47921;DHT22;33686;48.770;9.186;2023-09-12T08:12:17;27.20;99.90
47921;DHT22;33686;48.770;9.186;2023-09-12T08:14:43;26.90;99.90
47921;DHT22;33686;48.770;9.186;2023-09-12T08:17:10;27.10;99.90
47921;DHT22;33686;48.770;9.186;2023-09-12T08:19:36;27.40;99.90
47921;DHT22;33686;48.770;9.186;2023-09-12T08:22:01;27.60;99.90
47921;DHT22;33686;48.770;9.186;2023-09-12T08:24:27;27.50;99.90
47921;DHT22;33686;48.770;9.186;2023-09-12T08:26:52;27.50;99.90
47921;DHT22;33686;48.770;9.186;2023-09-12T08:29:18;27.00;99.90
47921;DHT22;33686;48.770;9.186;2023-09-12T08:31:43;26.30;99.90
47921;DHT22;33686;48.770;9.186;2023-09-12T08:34:12;25.90;99.90
47921;DHT22;33686;48.770;9.186;2023-09-12T08:36:38;25.70;99.90
47921;DHT22;33686;48.770;9.186;2023-09-12T08:39:03;25.80;99.90
47921;DHT22;33686;48.770;9.186;2023-09-12T08:41:30;25.80;99.90
47921;DHT22;33686;48.770;9.186;2023-09-12T08:43:55;26.40;99.90
47921;DHT22;33686;48.770;9.186;2023-09-12T08:46:21;27.70;99.90
47921;DHT22;33686;48.770;9.186;2023-09-12T08:48:48;29.20;99.90
47921;DHT22;33686;48.770;9.186;2023-09-12T08:51:14;29.90;99.90
47921;DHT22;33686;48.770;9.186;2023-09-12T08:53:40;30.80;99.90
47921;DHT22;33686;48.770;9.186;2023-09-12T08:56:06;31.00;99.90
47921;DHT22;33686;48.770;9.186;2023-09-12T08:58:32;31.50;99.90
47921;DHT22;33686;48.770;9.186;2023-09-12T09:00:59;31.90;99.90
47921;DHT22;33686;48.770;9.186;2023-09-12T09:03:25;31.70;99.90
47921;DHT22;33686;48.770;9.186;2023-09-12T09:05:51;31.30;99.90
47921;DHT22;33686;48.770;9.186;2023-09-12T09:08:17;30.90;99.90
47921;DHT22;33686;48.770;9.186;2023-09-12T09:10:56;31.20;99.90
47921;DHT22;33686;48.770;9.186;2023-09-12T09:13:23;31.00;99.90
47921;DHT22;33686;48.770;9.186;2023-09-12T09:15:48;32.30;99.90
47921;DHT22;33686;48.770;9.186;2023-09-12T09:18:14;31.90;99.90
47921;DHT22;33686;48.770;9.186;2023-09-12T09:20:39;31.40;99.90
47921;DHT22;33686;48.770;9.186;2023-09-12T09:23:07;31.40;99.90
47921;DHT22;33686;48.770;9.186;2023-09-12T09:25:39;31.70;99.90
47921;DHT22;33686;48.770;9.186;2023-09-12T09:28:05;31.80;99.90
47921;DHT22;33686;48.770;9.186;2023-09-12T09:30:41;32.30;99.90
47921;DHT22;33686;48.770;9.186;2023-09-12T09:33:07;32.10;99.90
47921;DHT22;33686;48.770;9.186;2023-09-12T09:35:32;31.90;99.90
47921;DHT22;33686;48.770;9.186;2023-09-12T09:37:58;31.30;99.90
47921;DHT22;33686;48.770;9.186;2023-09-12T09:40:24;30.90;99.90
47921;DHT22;33686;48.770;9.186;2023-09-12T09:42:53;30.30;99.90
47921;DHT22;33686;48.770;9.186;2023-09-12T09:45:19;30.30;99.90
47921;DHT22;33686;48.770;9.186;2023-09-12T09:47:44;30.50;99.90
47921;DHT22;33686;48.770;9.186;2023-09-12T09:50:13;29.70;99.90
47921;DHT22;33686;48.770;9.186;2023-09-12T09:52:39;29.50;99.90
47921;DHT22;33686;48.770;9.186;2023-09-12T09:55:06;29.60;99.90
47921;DHT22;33686;48.770;9.186;2023-09-12T09:57:36;29.20;99.90
47921;DHT22;33686;48.770;9.186;2023-09-12T10:00:02;29.10;99.90
47921;DHT22;33686;48.770;9.186;2023-09-12T10:02:33;29.20;99.90
47921;DHT22;33686;48.770;9.186;2023-09-12T10:04:59;28.90;99.90
47921;DHT22;33686;48.770;9.186;2023-09-12T10:07:26;28.40;99.90
47921;DHT22;33686;48.770;9.186;2023-09-12T10:09:52;28.40;99.90
47921;DHT22;33686;48.770;9.186;2023-09-12T10:12:18;28.20;99.90
47921;DHT22;33686;48.770;9.186;2023-09-12T10:14:44;28.40;99.90
47921;DHT22;33686;48.770;9.186;2023-09-12T10:17:10;28.40;99.90
47921;DHT22;33686;48.770;9.186;2023-09-12T10:19:39;28.20;99.90
47921;DHT22;33686;48.770;9.186;2023-09-12T10:22:12;28.30;99.90
47921;DHT22;33686;48.770;9.186;2023-09-12T10:24:40;28.20;99.90
47921;DHT22;33686;48.770;9.186;2023-09-12T10:27:07;28.30;99.90
47921;DHT22;33686;48.770;9.186;2023-09-12T10:29:33;28.60;99.90
47921;DHT22;33686;48.770;9.186;2023-09-12T10:31:59;28.50;99.90
47921;DHT22;33686;48.770;9.186;2023-09-12T10:34:25;28.50;99.90
47921;DHT22;33686;48.770;9.186;2023-09-12T10:36:51;28.40;99.90
47921;DHT22;33686;48.770;9.186;2023-09-12T10:39:18;28.40;99.90
47921;DHT22;33686;48.770;9.186;2023-09-12T10:41:44;28.40;99.90
47921;DHT22;33686;48.770;9.186;2023-09-12T10:44:16;28.30;99.90
47921;DHT22;33686;48.770;9.186;2023-09-12T10:46:42;28.30;99.90
47921;DHT22;33686;48.770;9.186;2023-09-12T10:49:08;28.40;99.90
47921;DHT22;33686;48.770;9.186;2023-09-12T10:51:44;28.50;99.90
47921;DHT22;33686;48.770;9.186;2023-09-12T10:54:14;28.70;99.90
47921;DHT22;33686;48.770;9.186;2023-09-12T10:56:39;28.70;99.90
47921;DHT22;33686;48.770;9.186;2023-09-12T11:01:35;28.60;99.90
47921;DHT22;33686;48.770;9.186;2023-09-12T11:06:48;28.60;99.90
47921;DHT22;33686;48.770;9.186;2023-09-12T11:11:39;28.70;99.90
47921;DHT22;33686;48.770;9.186;2023-09-12T11:14:06;28.80;99.90
47921;DHT22;33686;48.770;9.186;2023-09-12T11:16:31;28.80;99.90
47921;DHT22;33686;48.770;9.186;2023-09-12T11:21:39;28.90;99.90
47921;DHT22;33686;48.770;9.186;2023-09-12T11:24:05;29.00;99.90
47921;DHT22;33686;48.770;9.186;2023-09-12T11:26:30;28.90;99.90
47921;DHT22;33686;48.770;9.186;2023-09-12T11:28:56;28.90;99.90
47921;DHT22;33686;48.770;9.186;2023-09-12T11:31:27;29.10;99.90
47921;DHT22;33686;48.770;9.186;2023-09-12T11:33:53;29.00;99.90
47921;DHT22;33686;48.770;9.186;2023-09-12T11:36:19;28.80;99.90
47921;DHT22;33686;48.770;9.186;2023-09-12T11:38:48;28.90;99.90
47921;DHT22;33686;48.770;9.186;2023-09-12T11:41:14;29.00;99.90
47921;DHT22;33686;48.770;9.186;2023-09-12T11:43:40;29.10;99.90
47921;DHT22;33686;48.770;9.186;2023-09-12T11:46:06;29.00;99.90
47921;DHT22;33686;48.770;9.186;2023-09-12T11:48:33;29.20;99.90
47921;DHT22;33686;48.770;9.186;2023-09-12T11:50:59;29.20;99.90
47921;DHT22;33686;48.770;9.186;2023-09-12T11:53:27;29.10;99.90
47921;DHT22;33686;48.770;9.186;2023-09-12T11:55:56;29.30;99.90
47921;DHT22;33686;48.770;9.186;2023-09-12T11:58:22;29.50;99.90
47921;DHT22;33686;48.770;9.186;2023-09-12T12:00:56;29.50;99.90
47921;DHT22;33686;48.770;9.186;2023-09-12T12:03:22;29.40;99.90
47921;DHT22;33686;48.770;9.186;2023-09-12T12:05:47;29.50;99.90
47921;DHT22;33686;48.770;9.186;2023-09-12T12:08:14;29.60;99.90
47921;DHT22;33686;48.770;9.186;2023-09-12T12:10:39;29.50;99.90
47921;DHT22;33686;48.770;9.186;2023-09-12T12:13:27;29.40;99.90
47921;DHT22;33686;48.770;9.186;2023-09-12T12:15:53;29.30;99.90
47921;DHT22;33686;48.770;9.186;2023-09-12T12:18:18;29.40;99.90
47921;DHT22;33686;48.770;9.186;2023-09-12T12:20:44;29.50;99.90
47921;DHT22;33686;48.770;9.186;2023-09-12T12:23:09;29.60;99.90
47921;DHT22;33686;48.770;9.186;2023-09-12T12:25:35;29.60;99.90
47921;DHT22;33686;48.770;9.186;2023-09-12T12:28:01;29.60;99.90
47921;DHT22;33686;48.770;9.186;2023-09-12T12:30:30;29.90;99.90
47921;DHT22;33686;48.770;9.186;2023-09-12T12:32:55;29.70;99.90
47921;DHT22;33686;48.770;9.186;2023-09-12T12:35:21;29.80;99.90
47921;DHT22;33686;48.770;9.186;2023-09-12T12:37:50;29.70;99.90
47921;DHT22;33686;48.770;9.186;2023-09-12T12:40:17;29.70;99.90
47921;DHT22;33686;48.770;9.186;2023-09-12T12:42:42;29.80;99.90
47921;DHT22;33686;48.770;9.186;2023-09-12T12:45:15;29.90;99.90
47921;DHT22;33686;48.770;9.186;2023-09-12T12:47:41;29.80;99.90
47921;DHT22;33686;48.770;9.186;2023-09-12T12:50:16;30.00;99.90
47921;DHT22;33686;48.770;9.186;2023-09-12T12:52:46;30.20;99.90
47921;DHT22;33686;48.770;9.186;2023-09-12T12:55:12;30.10;99.80
47921;DHT22;33686;48.770;9.186;2023-09-12T12:57:40;30.30;99.40
47921;DHT22;33686;48.770;9.186;2023-09-12T13:00:07;30.30;99.00
47921;DHT22;33686;48.770;9.186;2023-09-12T13:02:33;30.40;99.30
47921;DHT22;33686;48.770;9.186;2023-09-12T13:04:58;30.50;98.50
47921;DHT22;33686;48.770;9.186;2023-09-12T13:07:24;30.30;98.70
47921;DHT22;33686;48.770;9.186;2023-09-12T13:09:49;30.00;98.70
47921;DHT22;33686;48.770;9.186;2023-09-12T13:12:15;30.20;98.90
47921;DHT22;33686;48.770;9.186;2023-09-12T13:14:43;30.10;98.70
47921;DHT22;33686;48.770;9.186;2023-09-12T13:17:09;30.00;98.40
47921;DHT22;33686;48.770;9.186;2023-09-12T13:19:34;29.90;98.50
47921;DHT22;33686;48.770;9.186;2023-09-12T13:22:00;29.90;99.00
47921;DHT22;33686;48.770;9.186;2023-09-12T13:24:26;30.10;98.40
47921;DHT22;33686;48.770;9.186;2023-09-12T13:26:51;30.20;98.50
47921;DHT22;33686;48.770;9.186;2023-09-12T13:29:18;30.00;98.50
47921;DHT22;33686;48.770;9.186;2023-09-12T13:31:43;30.00;98.40
47921;DHT22;33686;48.770;9.186;2023-09-12T13:34:09;30.10;98.30
47921;DHT22;33686;48.770;9.186;2023-09-12T13:36:34;30.10;98.10
47921;DHT22;33686;48.770;9.186;2023-09-12T13:39:00;30.10;98.10
47921;DHT22;33686;48.770;9.186;2023-09-12T13:41:25;30.20;98.30
47921;DHT22;33686;48.770;9.186;2023-09-12T13:43:51;30.10;98.40
47921;DHT22;33686;48.770;9.186;2023-09-12T13:46:17;30.00;98.50
47921;DHT22;33686;48.770;9.186;2023-09-12T13:48:42;29.90;98.10
47921;DHT22;33686;48.770;9.186;2023-09-12T13:51:08;29.70;98.40
47921;DHT22;33686;48.770;9.186;2023-09-12T13:53:33;29.80;98.00
47921;DHT22;33686;48.770;9.186;2023-09-12T13:55:59;29.90;97.60
47921;DHT22;33686;48.770;9.186;2023-09-12T13:58:26;29.90;97.40
47921;DHT22;33686;48.770;9.186;2023-09-12T14:00:52;30.00;97.60
47921;DHT22;33686;48.770;9.186;2023-09-12T14:03:17;30.00;98.10
47921;DHT22;33686;48.770;9.186;2023-09-12T14:05:43;30.10;98.00
47921;DHT22;33686;48.770;9.186;2023-09-12T14:08:09;30.10;98.30
47921;DHT22;33686;48.770;9.186;2023-09-12T14:10:35;30.10;98.20
47921;DHT22;33686;48.770;9.186;2023-09-12T14:13:00;30.20;98.50
47921;DHT22;33686;48.770;9.186;2023-09-12T14:15:26;30.20;98.70
47921;DHT22;33686;48.770;9.186;2023-09-12T14:17:51;30.30;98.60
47921;DHT22;33686;48.770;9.186;2023-09-12T14:20:17;30.30;99.00
47921;DHT22;33686;48.770;9.186;2023-09-12T14:22:43;30.10;99.00
47921;DHT22;33686;48.770;9.186;2023-09-12T14:25:09;30.10;99.20
47921;DHT22;33686;48.770;9.186;2023-09-12T14:27:42;30.00;99.20
47921;DHT22;33686;48.770;9.186;2023-09-12T14:30:09;29.90;99.50
47921;DHT22;33686;48.770;9.186;2023-09-12T14:32:35;29.80;99.90
47921;DHT22;33686;48.770;9.186;2023-09-12T14:35:00;29.70;99.90
47921;DHT22;33686;48.770;9.186;2023-09-12T14:37:26;29.50;99.90
47921;DHT22;33686;48.770;9.186;2023-09-12T14:39:53;29.50;99.90
47921;DHT22;33686;48.770;9.186;2023-09-12T14:42:19;29.50;99.90
47921;DHT22;33686;48.770;9.186;2023-09-12T14:44:44;29.40;99.90
47921;DHT22;33686;48.770;9.186;2023-09-12T14:47:10;29.40;99.90
47921;DHT22;33686;48.770;9.186;2023-09-12T14:49:35;29.40;99.90
47921;DHT22;33686;48.770;9.186;2023-09-12T14:52:01;29.30;99.90
47921;DHT22;33686;48.770;9.186;2023-09-12T14:54:26;29.30;99.90
47921;DHT22;33686;48.770;9.186;2023-09-12T14:56:52;29.40;99.90
47921;DHT22;33686;48.770;9.186;2023-09-12T14:59:18;29.40;99.90
47921;DHT22;33686;48.770;9.186;2023-09-12T15:01:43;29.40;99.90
47921;DHT22;33686;48.770;9.186;2023-09-12T15:04:10;29.40;99.90
47921;DHT22;33686;48.770;9.186;2023-09-12T15:06:36;29.30;99.90
47921;DHT22;33686;48.770;9.186;2023-09-12T15:09:02;29.20;99.90
47921;DHT22;33686;48.770;9.186;2023-09-12T15:11:27;29.30;99.90
47921;DHT22;33686;48.770;9.186;2023-09-12T15:13:53;29.30;99.90
47921;DHT22;33686;48.770;9.186;2023-09-12T15:16:18;29.30;99.90
47921;DHT22;33686;48.770;9.186;2023-09-12T15:18:45;29.30;99.90
47921;DHT22;33686;48.770;9.186;2023-09-12T15:21:10;29.20;99.90
47921;DHT22;33686;48.770;9.186;2023-09-12T15:23:36;29.40;99.90
47921;DHT22;33686;48.770;9.186;2023-09-12T15:26:02;29.50;99.90
47921;DHT22;33686;48.770;9.186;2023-09-12T15:28:28;29.50;99.90
47921;DHT22;33686;48.770;9.186;2023-09-12T15:30:53;29.40;99.90
47921;DHT22;33686;48.770;9.186;2023-09-12T15:33:19;29.40;99.90
47921;DHT22;33686;48.770;9.186;2023-09-12T15:35:45;29.30;99.90
47921;DHT22;33686;48.770;9.186;2023-09-12T15:38:10;29.30;99.90
47921;DHT22;33686;48.770;9.186;2023-09-12T15:40:36;29.30;99.90
47921;DHT22;33686;48.770;9.186;2023-09-12T15:43:02;29.20;99.90
47921;DHT22;33686;48.770;9.186;2023-09-12T15:45:27;29.10;99.90
47921;DHT22;33686;48.770;9.186;2023-09-12T15:47:53;29.10;99.90
47921;DHT22;33686;48.770;9.186;2023-09-12T15:50:19;29.00;99.90
47921;DHT22;33686;48.770;9.186;2023-09-12T15:52:44;29.00;99.90
47921;DHT22;33686;48.770;9.186;2023-09-12T15:55:10;28.80;99.90
47921;DHT22;33686;48.770;9.186;2023-09-12T15:57:37;28.80;99.90
47921;DHT22;33686;48.770;9.186;2023-09-12T16:00:06;28.80;99.90
47921;DHT22;33686;48.770;9.186;2023-09-12T16:02:37;28.70;99.90
47921;DHT22;33686;48.770;9.186;2023-09-12T16:05:04;28.70;99.90
47921;DHT22;33686;48.770;9.186;2023-09-12T16:07:29;28.60;99.90
47921;DHT22;33686;48.770;9.186;2023-09-12T16:09:55;28.70;99.90
47921;DHT22;33686;48.770;9.186;2023-09-12T16:12:20;28.50;99.90
47921;DHT22;33686;48.770;9.186;2023-09-12T16:14:46;28.40;99.90
47921;DHT22;33686;48.770;9.186;2023-09-12T16:17:12;28.30;99.90
47921;DHT22;33686;48.770;9.186;2023-09-12T16:19:37;28.20;99.90
47921;DHT22;33686;48.770;9.186;2023-09-12T16:22:03;28.20;99.90
47921;DHT22;33686;48.770;9.186;2023-09-12T16:24:31;28.30;99.90
47921;DHT22;33686;48.770;9.186;2023-09-12T16:26:56;28.40;99.90
47921;DHT22;33686;48.770;9.186;2023-09-12T16:29:26;28.50;99.90
47921;DHT22;33686;48.770;9.186;2023-09-12T16:31:51;28.50;99.90
47921;DHT22;33686;48.770;9.186;2023-09-12T16:34:17;28.60;99.90
47921;DHT22;33686;48.770;9.186;2023-09-12T16:36:42;28.60;99.90
47921;DHT22;33686;48.770;9.186;2023-09-12T16:39:08;28.70;99.90
47921;DHT22;33686;48.770;9.186;2023-09-12T16:41:34;28.70;99.90
47921;DHT22;33686;48.770;9.186;2023-09-12T16:43:59;28.70;99.90
47921;DHT22;33686;48.770;9.186;2023-09-12T16:46:25;28.70;99.90
47921;DHT22;33686;48.770;9.186;2023-09-12T16:48:50;28.70;99.90
47921;DHT22;33686;48.770;9.186;2023-09-12T16:51:16;28.60;99.90
47921;DHT22;33686;48.770;9.186;2023-09-12T16:53:41;28.50;99.90
47921;DHT22;33686;48.770;9.186;2023-09-12T16:56:07;28.30;99.90
47921;DHT22;33686;48.770;9.186;2023-09-12T16:58:32;28.10;99.90
47921;DHT22;33686;48.770;9.186;2023-09-12T17:00:58;27.90;99.90
47921;DHT22;33686;48.770;9.186;2023-09-12T17:03:23;27.60;99.90
47921;DHT22;33686;48.770;9.186;2023-09-12T17:05:49;27.70;99.90
47921;DHT22;33686;48.770;9.186;2023-09-12T17:08:14;27.70;99.90
47921;DHT22;33686;48.770;9.186;2023-09-12T17:10:40;27.70;99.90
47921;DHT22;33686;48.770;9.186;2023-09-12T17:13:06;27.60;99.90
47921;DHT22;33686;48.770;9.186;2023-09-12T17:15:31;27.50;99.90
47921;DHT22;33686;48.770;9.186;2023-09-12T17:17:59;27.50;99.90
47921;DHT22;33686;48.770;9.186;2023-09-12T17:20:25;27.40;99.90
47921;DHT22;33686;48.770;9.186;2023-09-12T17:22:51;27.30;99.90
47921;DHT22;33686;48.770;9.186;2023-09-12T17:25:16;27.20;99.90
47921;DHT22;33686;48.770;9.186;2023-09-12T17:27:42;27.10;99.90
47921;DHT22;33686;48.770;9.186;2023-09-12T17:32:43;26.80;99.90
47921;DHT22;33686;48.770;9.186;2023-09-12T17:35:08;26.70;99.90
47921;DHT22;33686;48.770;9.186;2023-09-12T17:37:34;26.60;99.90
47921;DHT22;33686;48.770;9.186;2023-09-12T17:40:00;26.50;99.90
47921;DHT22;33686;48.770;9.186;2023-09-12T17:42:25;26.40;99.90
47921;DHT22;33686;48.770;9.186;2023-09-12T17:44:51;26.30;99.90
47921;DHT22;33686;48.770;9.186;2023-09-12T17:47:17;26.30;99.90
47921;DHT22;33686;48.770;9.186;2023-09-12T17:49:44;26.20;99.90
47921;DHT22;33686;48.770;9.186;2023-09-12T17:52:10;26.10;99.90
47921;DHT22;33686;48.770;9.186;2023-09-12T17:54:36;26.10;99.90
47921;DHT22;33686;48.770;9.186;2023-09-12T17:57:02;26.00;99.90
47921;DHT22;33686;48.770;9.186;2023-09-12T17:59:27;26.00;99.90
47921;DHT22;33686;48.770;9.186;2023-09-12T18:01:53;25.90;99.90
47921;DHT22;33686;48.770;9.186;2023-09-12T18:04:18;25.90;99.90
47921;DHT22;33686;48.770;9.186;2023-09-12T18:06:44;25.80;99.90
47921;DHT22;33686;48.770;9.186;2023-09-12T18:09:09;25.70;99.90
47921;DHT22;33686;48.770;9.186;2023-09-12T18:11:35;25.70;99.90
47921;DHT22;33686;48.770;9.186;2023-09-12T18:14:01;25.60;99.90
47921;DHT22;33686;48.770;9.186;2023-09-12T18:16:27;25.60;99.90
47921;DHT22;33686;48.770;9.186;2023-09-12T18:18:52;25.50;99.90
47921;DHT22;33686;48.770;9.186;2023-09-12T18:21:18;25.40;99.90
47921;DHT22;33686;48.770;9.186;2023-09-12T18:23:43;25.40;99.90
47921;DHT22;33686;48.770;9.186;2023-09-12T18:26:10;25.30;99.90
47921;DHT22;33686;48.770;9.186;2023-09-12T18:28:39;25.30;99.90
47921;DHT22;33686;48.770;9.186;2023-09-12T18:31:06;25.20;99.90
47921;DHT22;33686;48.770;9.186;2023-09-12T18:33:32;25.10;99.90
47921;DHT22;33686;48.770;9.186;2023-09-12T18:35:58;25.00;99.90
47921;DHT22;33686;48.770;9.186;2023-09-12T18:38:23;25.00;99.90
47921;DHT22;33686;48.770;9.186;2023-09-12T18:40:49;24.90;99.90
47921;DHT22;33686;48.770;9.186;2023-09-12T18:43:14;24.80;99.90
47921;DHT22;33686;48.770;9.186;2023-09-12T18:45:40;24.90;99.90
47921;DHT22;33686;48.770;9.186;2023-09-12T18:48:05;24.80;99.90
47921;DHT22;33686;48.770;9.186;2023-09-12T18:50:31;24.80;99.90
47921;DHT22;33686;48.770;9.186;2023-09-12T18:52:56;24.80;99.90
47921;DHT22;33686;48.770;9.186;2023-09-12T18:55:25;24.70;99.90
47921;DHT22;33686;48.770;9.186;2023-09-12T18:57:51;24.70;99.90
47921;DHT22;33686;48.770;9.186;2023-09-12T19:00:17;24.70;99.90
47921;DHT22;33686;48.770;9.186;2023-09-12T19:02:42;24.70;99.90
47921;DHT22;33686;48.770;9.186;2023-09-12T19:05:08;24.70;99.90
47921;DHT22;33686;48.770;9.186;2023-09-12T19:07:33;24.70;99.90
47921;DHT22;33686;48.770;9.186;2023-09-12T19:10:00;24.60;99.90
47921;DHT22;33686;48.770;9.186;2023-09-12T19:12:25;24.60;99.90
47921;DHT22;33686;48.770;9.186;2023-09-12T19:14:51;24.60;99.90
47921;DHT22;33686;48.770;9.186;2023-09-12T19:17:16;24.60;99.90
47921;DHT22;33686;48.770;9.186;2023-09-12T19:19:42;24.60;99.90
47921;DHT22;33686;48.770;9.186;2023-09-12T19:22:07;24.50;99.90
47921;DHT22;33686;48.770;9.186;2023-09-12T19:24:33;24.50;99.90
47921;DHT22;33686;48.770;9.186;2023-09-12T19:26:58;24.50;99.90
47921;DHT22;33686;48.770;9.186;2023-09-12T19:29:24;24.50;99.90
47921;DHT22;33686;48.770;9.186;2023-09-12T19:31:49;24.40;99.90
47921;DHT22;33686;48.770;9.186;2023-09-12T19:34:16;24.40;99.90
47921;DHT22;33686;48.770;9.186;2023-09-12T19:36:42;24.40;99.90
47921;DHT22;33686;48.770;9.186;2023-09-12T19:39:07;24.40;99.90
47921;DHT22;33686;48.770;9.186;2023-09-12T19:41:33;24.40;99.90
47921;DHT22;33686;48.770;9.186;2023-09-12T19:43:58;24.40;99.90
47921;DHT22;33686;48.770;9.186;2023-09-12T19:46:24;24.40;99.90
47921;DHT22;33686;48.770;9.186;2023-09-12T19:48:50;24.30;99.90
47921;DHT22;33686;48.770;9.186;2023-09-12T19:51:15;24.30;99.90
47921;DHT22;33686;48.770;9.186;2023-09-12T19:53:41;24.30;99.90
47921;DHT22;33686;48.770;9.186;2023-09-12T19:56:06;24.40;99.90
47921;DHT22;33686;48.770;9.186;2023-09-12T19:58:33;24.30;99.90
47921;DHT22;33686;48.770;9.186;2023-09-12T20:00:59;24.40;99.90
47921;DHT22;33686;48.770;9.186;2023-09-12T20:03:28;24.30;99.90
47921;DHT22;33686;48.770;9.186;2023-09-12T20:05:54;24.30;99.90
47921;DHT22;33686;48.770;9.186;2023-09-12T20:08:20;24.20;99.90
47921;DHT22;33686;48.770;9.186;2023-09-12T20:10:45;24.30;99.90
47921;DHT22;33686;48.770;9.186;2023-09-12T20:13:11;24.20;99.90
47921;DHT22;33686;48.770;9.186;2023-09-12T20:15:36;24.20;99.90
47921;DHT22;33686;48.770;9.186;2023-09-12T20:18:12;24.10;99.90
47921;DHT22;33686;48.770;9.186;2023-09-12T20:20:38;24.10;99.90
47921;DHT22;33686;48.770;9.186;2023-09-12T20:23:03;24.10;99.90
47921;DHT22;33686;48.770;9.186;2023-09-12T20:25:30;24.10;99.90
47921;DHT22;33686;48.770;9.186;2023-09-12T20:27:56;24.10;99.90
47921;DHT22;33686;48.770;9.186;2023-09-12T20:30:21;24.10;99.90
47921;DHT22;33686;48.770;9.186;2023-09-12T20:32:47;24.10;99.90
47921;DHT22;33686;48.770;9.186;2023-09-12T20:35:12;24.10;99.90
47921;DHT22;33686;48.770;9.186;2023-09-12T20:37:38;24.00;99.90
47921;DHT22;33686;48.770;9.186;2023-09-12T20:40:04;24.00;99.90
47921;DHT22;33686;48.770;9.186;2023-09-12T20:42:29;24.00;99.90
47921;DHT22;33686;48.770;9.186;2023-09-12T20:44:55;24.00;99.90
47921;DHT22;33686;48.770;9.186;2023-09-12T20:47:20;24.00;99.90
47921;DHT22;33686;48.770;9.186;2023-09-12T20:49:48;24.00;99.90
47921;DHT22;33686;48.770;9.186;2023-09-12T20:52:19;23.90;99.90